createdAt,value
2019-03-10T03:07:42.760Z,21.7
2019-03-10T03:08:33.028Z,21.8
2019-03-10T03:09:23.972Z,21.7
2019-03-10T03:10:13.664Z,21.7
2019-03-10T03:11:03.214Z,21.7
2019-03-10T03:11:54.374Z,21.7
2019-03-10T03:12:44.009Z,21.7
2019-03-10T03:13:33.623Z,21.7
2019-03-10T03:14:24.252Z,21.7
2019-03-10T03:15:14.549Z,21.7
2019-03-10T03:16:03.825Z,21.7
2019-03-10T03:16:57.317Z,21.7
2019-03-10T03:17:43.159Z,21.7
2019-03-10T03:18:33.689Z,21.7
2019-03-10T03:19:23.316Z,21.7
2019-03-10T03:20:14.704Z,21.7
2019-03-10T03:21:04.843Z,21.7
2019-03-10T03:21:55.044Z,21.7
2019-03-10T03:22:44.628Z,21.7
2019-03-10T03:23:34.604Z,21.7
2019-03-10T03:24:24.956Z,21.7
2019-03-10T03:25:14.751Z,21.7
2019-03-10T03:26:03.886Z,21.7
2019-03-10T03:26:55.452Z,21.7
2019-03-10T03:27:44.421Z,21.8
2019-03-10T03:28:35.121Z,21.8
2019-03-10T03:29:25.043Z,21.8
2019-03-10T03:30:15.019Z,21.8
2019-03-10T03:31:05.669Z,21.8
2019-03-10T03:31:54.424Z,21.8
2019-03-10T03:32:45.633Z,21.8
2019-03-10T03:33:35.652Z,21.8
2019-03-10T03:34:25.174Z,21.8
2019-03-10T03:35:16.239Z,21.8
2019-03-10T03:36:05.631Z,21.8
2019-03-10T03:36:55.563Z,21.8
2019-03-10T03:37:45.707Z,21.8
2019-03-10T03:38:36.385Z,21.8
2019-03-10T03:39:25.030Z,21.8
2019-03-10T03:40:15.244Z,21.8
2019-03-10T03:41:05.893Z,21.8
2019-03-10T03:41:55.427Z,21.8
2019-03-10T03:42:46.343Z,21.7
2019-03-10T03:43:36.357Z,21.8
2019-03-10T03:44:25.847Z,21.8
2019-03-10T03:45:15.940Z,21.7
2019-03-10T03:46:05.816Z,21.8
2019-03-10T03:46:56.377Z,21.7
2019-03-10T03:47:46.114Z,21.7
2019-03-10T03:48:35.908Z,21.7
2019-03-10T03:49:26.780Z,21.7
2019-03-10T03:50:15.709Z,21.7
2019-03-10T03:51:05.960Z,21.7
2019-03-10T03:51:57.036Z,21.7
2019-03-10T03:52:45.906Z,21.7
2019-03-10T03:53:36.511Z,21.7
2019-03-10T03:54:26.425Z,21.7
2019-03-10T03:55:16.671Z,21.7
2019-03-10T03:56:06.428Z,21.7
2019-03-10T03:56:55.969Z,21.7
2019-03-10T03:57:46.773Z,21.7
2019-03-10T03:58:37.195Z,21.7
2019-03-10T03:59:26.553Z,21.7
2019-03-10T04:00:16.259Z,21.7
2019-03-10T04:01:07.380Z,21.7
2019-03-10T04:01:57.977Z,21.7
2019-03-10T04:02:47.287Z,21.7
2019-03-10T04:03:37.809Z,21.7
2019-03-10T04:04:27.341Z,21.7
2019-03-10T04:05:17.474Z,21.7
2019-03-10T04:06:07.521Z,21.7
2019-03-10T04:06:56.804Z,21.7
2019-03-10T04:07:47.953Z,21.7
2019-03-10T04:08:36.887Z,21.7
2019-03-10T04:09:27.475Z,21.7
2019-03-10T04:10:17.214Z,21.7
2019-03-10T04:11:07.043Z,21.6
2019-03-10T04:11:57.617Z,21.7
2019-03-10T04:12:46.580Z,21.6
2019-03-10T04:13:37.710Z,21.7
2019-03-10T04:14:28.891Z,21.7
2019-03-10T04:15:18.364Z,21.7
2019-03-10T04:16:07.501Z,21.7
2019-03-10T04:16:57.996Z,21.6
2019-03-10T04:17:48.569Z,21.7
2019-03-10T04:18:38.948Z,21.7
2019-03-10T04:19:28.362Z,21.7
2019-03-10T04:20:18.681Z,21.7
2019-03-10T04:21:08.857Z,21.7
2019-03-10T04:21:58.796Z,21.7
2019-03-10T04:22:49.450Z,21.7
2019-03-10T04:23:39.216Z,21.7
2019-03-10T04:24:27.970Z,21.7
2019-03-10T04:25:19.140Z,21.7
2019-03-10T04:26:08.941Z,21.7
2019-03-10T04:26:58.676Z,21.7
2019-03-10T04:27:49.223Z,21.7
2019-03-10T04:28:39.403Z,21.7
2019-03-10T04:29:29.403Z,21.7
2019-03-10T04:30:19.526Z,21.7
2019-03-10T04:31:09.521Z,21.7
2019-03-10T04:32:00.213Z,21.7
2019-03-10T04:32:49.577Z,21.7
2019-03-10T04:33:39.995Z,21.7
2019-03-10T04:34:29.470Z,21.7
2019-03-10T04:35:19.541Z,21.7
2019-03-10T04:36:10.143Z,21.7
2019-03-10T04:37:00.425Z,21.7
2019-03-10T04:37:50.297Z,21.7
2019-03-10T04:38:40.225Z,21.7
2019-03-10T04:39:29.760Z,21.7
2019-03-10T04:40:19.847Z,21.7
2019-03-10T04:41:10.484Z,21.7
2019-03-10T04:41:59.970Z,21.7
2019-03-10T04:42:49.695Z,21.7
2019-03-10T04:43:40.371Z,21.7
2019-03-10T04:44:30.444Z,21.7
2019-03-10T04:45:20.449Z,21.7
2019-03-10T04:46:10.354Z,21.7
2019-03-10T04:47:01.134Z,21.7
2019-03-10T04:47:50.086Z,21.7
2019-03-10T04:48:41.314Z,21.7
2019-03-10T04:49:31.034Z,21.7
2019-03-10T04:50:23.104Z,21.7
2019-03-10T04:51:11.171Z,21.7
2019-03-10T04:52:00.079Z,21.7
2019-03-10T04:52:50.786Z,21.7
2019-03-10T04:53:41.383Z,21.7
2019-03-10T04:54:30.856Z,21.7
2019-03-10T04:55:20.886Z,21.7
2019-03-10T04:56:10.974Z,21.7
2019-03-10T04:57:03.514Z,21.7
2019-03-10T04:57:51.629Z,21.7
2019-03-10T04:58:41.179Z,21.7
2019-03-10T04:59:31.538Z,21.7
2019-03-10T05:00:21.661Z,21.7
2019-03-10T05:01:11.913Z,21.7
2019-03-10T05:02:01.411Z,21.7
2019-03-10T05:02:52.031Z,21.7
2019-03-10T05:03:41.576Z,21.7
2019-03-10T05:04:34.632Z,21.7
2019-03-10T05:05:21.608Z,21.7
2019-03-10T05:06:12.073Z,21.8
2019-03-10T05:07:02.348Z,21.8
2019-03-10T05:07:52.080Z,21.8
2019-03-10T05:08:42.130Z,21.7
2019-03-10T05:09:31.936Z,21.8
2019-03-10T05:10:22.303Z,21.8
2019-03-10T05:11:12.125Z,21.8
2019-03-10T05:12:02.120Z,21.8
2019-03-10T05:12:52.191Z,21.8
2019-03-10T05:13:43.087Z,21.8
2019-03-10T05:14:33.109Z,21.8
2019-03-10T05:15:22.675Z,21.8
2019-03-10T05:16:12.485Z,21.7
2019-03-10T05:17:02.788Z,21.7
2019-03-10T05:17:52.250Z,21.8
2019-03-10T05:18:42.319Z,21.8
2019-03-10T05:19:31.882Z,21.8
2019-03-10T05:20:23.540Z,21.7
2019-03-10T05:21:12.897Z,21.8
2019-03-10T05:22:02.822Z,21.7
2019-03-10T05:22:53.256Z,21.7
2019-03-10T05:23:43.002Z,21.7
2019-03-10T05:24:32.785Z,21.7
2019-03-10T05:25:23.582Z,21.7
2019-03-10T05:26:12.967Z,21.7
2019-03-10T05:27:02.927Z,21.7
2019-03-10T05:27:52.479Z,21.7
2019-03-10T05:28:43.860Z,21.7
2019-03-10T05:29:33.937Z,21.7
2019-03-10T05:30:23.977Z,21.7
2019-03-10T05:31:13.852Z,21.7
2019-03-10T05:32:03.944Z,21.7
2019-03-10T05:32:54.234Z,21.7
2019-03-10T05:33:43.767Z,21.7
2019-03-10T05:34:33.804Z,21.7
2019-03-10T05:35:24.102Z,21.7
2019-03-10T05:36:14.153Z,21.7
2019-03-10T05:37:03.931Z,21.7
2019-03-10T05:37:54.252Z,21.7
2019-03-10T05:38:44.311Z,21.7
2019-03-10T05:39:33.801Z,21.7
2019-03-10T05:40:24.441Z,21.7
2019-03-10T05:41:13.147Z,21.7
2019-03-10T05:42:04.646Z,21.7
2019-03-10T05:42:54.041Z,21.7
2019-03-10T05:43:44.984Z,21.7
2019-03-10T05:44:34.754Z,21.7
2019-03-10T05:45:24.511Z,21.7
2019-03-10T05:46:15.164Z,21.7
2019-03-10T05:47:04.633Z,21.7
2019-03-10T05:47:54.991Z,21.8
2019-03-10T05:48:45.492Z,21.7
2019-03-10T05:49:33.763Z,21.8
2019-03-10T05:50:24.857Z,21.7
2019-03-10T05:51:14.953Z,21.8
2019-03-10T05:52:04.750Z,21.7
2019-03-10T05:52:55.433Z,21.8
2019-03-10T05:53:44.345Z,21.8
2019-03-10T05:54:35.471Z,21.8
2019-03-10T05:55:25.805Z,21.8
2019-03-10T05:56:15.329Z,21.8
2019-03-10T05:57:05.947Z,21.8
2019-03-10T05:57:55.488Z,21.8
2019-03-10T05:58:45.850Z,21.8
2019-03-10T05:59:35.303Z,21.8
2019-03-10T06:00:25.060Z,21.8
2019-03-10T06:01:15.707Z,21.8
2019-03-10T06:02:06.595Z,21.8
2019-03-10T06:02:55.234Z,21.8
2019-03-10T06:05:43.363Z,21.8
2019-03-10T06:06:33.312Z,21.8
2019-03-10T06:07:23.127Z,21.8
2019-03-10T06:08:13.210Z,21.8
2019-03-10T06:09:03.025Z,21.8
2019-03-10T06:09:53.852Z,21.8
2019-03-10T06:10:43.345Z,21.8
2019-03-10T06:11:34.239Z,21.8
2019-03-10T06:12:24.050Z,21.8
2019-03-10T06:13:13.259Z,21.8
2019-03-10T06:14:03.037Z,21.8
2019-03-10T06:14:54.235Z,21.8
2019-03-10T06:15:43.979Z,21.8
2019-03-10T06:16:34.296Z,21.8
2019-03-10T06:17:25.904Z,21.8
2019-03-10T06:18:19.927Z,21.8
2019-03-10T06:19:04.777Z,21.8
2019-03-10T06:19:54.596Z,21.8
2019-03-10T06:20:44.622Z,21.8
2019-03-10T06:21:34.442Z,21.8
2019-03-10T06:22:23.907Z,21.8
2019-03-10T06:23:13.799Z,21.8
2019-03-10T06:24:04.308Z,21.8
2019-03-10T06:24:54.654Z,21.9
2019-03-10T06:25:44.226Z,21.9
2019-03-10T06:26:35.326Z,21.9
2019-03-10T06:27:25.001Z,21.9
2019-03-10T06:28:14.338Z,21.9
2019-03-10T06:29:04.981Z,21.9
2019-03-10T06:29:55.005Z,21.9
2019-03-10T06:30:45.141Z,21.9
2019-03-10T06:31:34.935Z,21.9
2019-03-10T06:32:25.471Z,21.9
2019-03-10T06:33:14.474Z,21.9
2019-03-10T06:34:05.102Z,21.9
2019-03-10T06:34:55.108Z,21.9
2019-03-10T06:35:45.151Z,21.9
2019-03-10T06:36:34.931Z,21.9
2019-03-10T06:37:25.865Z,21.9
2019-03-10T06:38:14.825Z,21.9
2019-03-10T06:39:05.763Z,22
2019-03-10T06:39:55.198Z,21.9
2019-03-10T06:40:45.575Z,21.9
2019-03-10T06:41:35.108Z,21.9
2019-03-10T06:42:25.703Z,22
2019-03-10T06:43:15.741Z,22
2019-03-10T06:44:06.590Z,21.9
2019-03-10T06:44:56.143Z,21.9
2019-03-10T06:45:45.870Z,21.9
2019-03-10T06:46:35.648Z,22
2019-03-10T06:47:25.725Z,21.9
2019-03-10T06:48:15.476Z,22
2019-03-10T06:49:06.655Z,21.9
2019-03-10T06:49:56.757Z,21.9
2019-03-10T06:50:46.537Z,21.9
2019-03-10T06:51:36.279Z,21.9
2019-03-10T06:52:26.948Z,21.9
2019-03-10T06:53:17.025Z,21.9
2019-03-10T06:54:07.027Z,21.9
2019-03-10T06:54:56.917Z,21.9
2019-03-10T06:55:46.605Z,22
2019-03-10T06:56:37.205Z,22
2019-03-10T06:57:27.045Z,22
2019-03-10T06:58:16.547Z,22
2019-03-10T06:59:07.407Z,22
2019-03-10T06:59:57.008Z,22
2019-03-10T07:00:47.009Z,22
2019-03-10T07:01:37.306Z,22
2019-03-10T07:02:27.673Z,22
2019-03-10T07:03:17.442Z,22.1
2019-03-10T07:05:57.931Z,22.1
2019-03-10T07:06:33.056Z,22.1
2019-03-10T07:07:23.022Z,22.1
2019-03-10T07:08:12.604Z,22.1
2019-03-10T07:09:03.187Z,22.1
2019-03-10T07:09:54.122Z,22.1
2019-03-10T07:10:43.858Z,22.1
2019-03-10T07:11:33.701Z,22.1
2019-03-10T07:12:23.703Z,22.1
2019-03-10T07:13:14.327Z,22.1
2019-03-10T07:14:03.841Z,22.1
2019-03-10T07:14:54.449Z,22.1
2019-03-10T07:15:43.124Z,22.1
2019-03-10T07:16:33.756Z,22.1
2019-03-10T07:17:23.539Z,22.1
2019-03-10T07:18:13.033Z,22.1
2019-03-10T07:19:03.410Z,22.1
2019-03-10T07:19:53.696Z,22.1
2019-03-10T07:20:43.774Z,22.1
2019-03-10T07:21:32.943Z,22.1
2019-03-10T07:22:24.453Z,22.2
2019-03-10T07:23:14.586Z,22.1
2019-03-10T07:24:04.379Z,22.1
2019-03-10T07:24:54.331Z,22.1
2019-03-10T07:25:43.288Z,22.1
2019-03-10T07:26:33.922Z,22.1
2019-03-10T07:27:24.503Z,22.1
2019-03-10T07:28:14.021Z,22.1
2019-03-10T07:29:04.371Z,22.1
2019-03-10T07:29:54.390Z,22.2
2019-03-10T07:30:44.467Z,22.2
2019-03-10T07:31:34.518Z,22.2
2019-03-10T07:32:24.700Z,22.2
2019-03-10T07:33:15.002Z,22.2
2019-03-10T07:34:04.424Z,22.2
2019-03-10T07:34:55.590Z,22.2
2019-03-10T07:35:45.665Z,22.2
2019-03-10T07:36:35.145Z,22.2
2019-03-10T07:37:25.506Z,22.2
2019-03-10T07:38:15.607Z,22.2
2019-03-10T07:39:05.605Z,22.2
2019-03-10T07:39:55.434Z,22.2
2019-03-10T07:40:44.935Z,22.2
2019-03-10T07:41:36.112Z,22.2
2019-03-10T07:42:26.411Z,22.2
2019-03-10T07:43:15.662Z,22.2
2019-03-10T07:44:05.738Z,22.2
2019-03-10T07:44:56.027Z,22.3
2019-03-10T07:45:45.567Z,22.3
2019-03-10T07:46:36.487Z,22.3
2019-03-10T07:47:26.227Z,22.3
2019-03-10T07:48:15.461Z,22.3
2019-03-10T07:49:06.364Z,22.3
2019-03-10T07:49:55.604Z,22.3
2019-03-10T07:50:45.918Z,22.3
2019-03-10T07:51:36.804Z,22.3
2019-03-10T07:52:26.763Z,22.3
2019-03-10T07:53:16.911Z,22.3
2019-03-10T07:54:06.743Z,22.3
2019-03-10T07:54:56.509Z,22.3
2019-03-10T07:55:46.309Z,22.3
2019-03-10T07:56:36.621Z,22.3
2019-03-10T07:57:25.921Z,22.3
2019-03-10T07:58:16.228Z,22.3
2019-03-10T07:59:06.351Z,22.3
2019-03-10T07:59:56.581Z,22.3
2019-03-10T08:00:47.223Z,22.3
2019-03-10T08:01:37.553Z,22.3
2019-03-10T08:02:27.377Z,22.3
2019-03-10T08:03:17.423Z,22.3
2019-03-10T08:04:07.518Z,22.3
2019-03-10T08:04:57.317Z,22.3
2019-03-10T08:05:47.330Z,22.3
2019-03-10T08:06:37.090Z,22.3
2019-03-10T08:07:27.760Z,22.3
2019-03-10T08:08:17.040Z,22.3
2019-03-10T08:09:08.086Z,22.3
2019-03-10T08:09:57.877Z,22.3
2019-03-10T08:10:46.811Z,22.3
2019-03-10T08:11:36.930Z,22.3
2019-03-10T08:12:27.733Z,22.3
2019-03-10T08:13:17.015Z,22.3
2019-03-10T08:14:07.372Z,22.3
2019-03-10T08:14:58.224Z,22.3
2019-03-10T08:15:47.989Z,22.3
2019-03-10T08:16:37.787Z,22.3
2019-03-10T08:17:30.835Z,22.3
2019-03-10T08:18:18.172Z,22.3
2019-03-10T08:19:08.000Z,22.3
2019-03-10T08:19:58.630Z,22.3
2019-03-10T08:20:48.911Z,22.3
2019-03-10T08:21:38.719Z,22.3
2019-03-10T08:22:28.209Z,22.3
2019-03-10T08:23:18.579Z,22.3
2019-03-10T08:24:09.426Z,22.3
2019-03-10T08:24:58.657Z,22.3
2019-03-10T08:25:48.495Z,22.3
2019-03-10T08:26:39.584Z,22.3
2019-03-10T08:27:28.859Z,22.3
2019-03-10T08:28:21.713Z,22.3
2019-03-10T08:29:09.512Z,22.4
2019-03-10T08:29:59.019Z,22.4
2019-03-10T08:30:49.404Z,22.4
2019-03-10T08:31:39.194Z,22.4
2019-03-10T08:32:28.679Z,22.4
2019-03-10T08:33:19.006Z,22.3
2019-03-10T08:34:09.409Z,22.4
2019-03-10T08:34:59.936Z,22.3
2019-03-10T08:35:49.504Z,22.4
2019-03-10T08:36:39.304Z,22.4
2019-03-10T08:37:30.391Z,22.4
2019-03-10T08:38:20.201Z,22.3
2019-03-10T08:39:09.429Z,22.4
2019-03-10T08:39:59.776Z,22.4
2019-03-10T08:40:50.363Z,22.4
2019-03-10T08:41:40.441Z,22.4
2019-03-10T08:42:30.256Z,22.4
2019-03-10T08:43:20.641Z,22.4
2019-03-10T08:44:10.313Z,22.4
2019-03-10T08:44:59.585Z,22.4
2019-03-10T08:45:51.073Z,22.4
2019-03-10T08:46:40.508Z,22.4
2019-03-10T08:47:29.493Z,22.4
2019-03-10T08:48:20.610Z,22.4
2019-03-10T08:49:10.493Z,22.4
2019-03-10T08:50:00.481Z,22.4
2019-03-10T08:50:51.098Z,22.4
2019-03-10T08:51:40.882Z,22.4
2019-03-10T08:52:31.200Z,22.4
2019-03-10T08:53:20.198Z,22.4
2019-03-10T08:54:11.142Z,22.4
2019-03-10T08:55:00.918Z,22.4
2019-03-10T08:55:50.775Z,22.4
2019-03-10T08:56:41.293Z,22.4
2019-03-10T08:57:31.915Z,22.4
2019-03-10T08:58:21.686Z,22.4
2019-03-10T08:59:11.735Z,22.4
2019-03-10T09:00:00.913Z,22.4
2019-03-10T09:00:51.582Z,22.4
2019-03-10T09:01:41.418Z,22.4
2019-03-10T09:02:31.369Z,22.4
2019-03-10T09:03:21.525Z,22.4
2019-03-10T09:04:11.785Z,22.4
2019-03-10T09:05:02.043Z,22.4
2019-03-10T09:05:51.612Z,22.4
2019-03-10T09:06:44.562Z,22.4
2019-03-10T09:07:31.522Z,22.4
2019-03-10T09:08:22.059Z,22.4
2019-03-10T09:09:12.147Z,22.4
2019-03-10T09:10:02.534Z,22.4
2019-03-10T09:10:51.619Z,22.4
2019-03-10T09:11:42.116Z,22.4
2019-03-10T09:12:32.106Z,22.4
2019-03-10T09:13:22.441Z,22.4
2019-03-10T09:14:12.513Z,22.4
2019-03-10T09:15:03.006Z,22.4
2019-03-10T09:15:51.829Z,22.4
2019-03-10T09:16:43.357Z,22.4
2019-03-10T09:17:32.796Z,22.4
2019-03-10T09:18:22.544Z,22.4
2019-03-10T09:19:12.334Z,22.4
2019-03-10T09:20:02.858Z,22.4
2019-03-10T09:20:53.038Z,22.4
2019-03-10T09:21:43.123Z,22.4
2019-03-10T09:22:32.863Z,22.4
2019-03-10T09:23:23.171Z,22.4
2019-03-10T09:24:13.259Z,22.4
2019-03-10T09:25:03.059Z,22.4
2019-03-10T09:25:53.698Z,22.4
2019-03-10T09:26:42.321Z,22.4
2019-03-10T09:27:34.914Z,22.4
2019-03-10T09:28:23.281Z,22.4
2019-03-10T09:29:13.403Z,22.4
2019-03-10T09:30:03.821Z,22.4
2019-03-10T09:30:53.170Z,22.4
2019-03-10T09:31:44.078Z,22.4
2019-03-10T09:32:34.185Z,22.4
2019-03-10T09:33:24.253Z,22.4
2019-03-10T09:34:13.226Z,22.4
2019-03-10T09:35:04.613Z,22.4
2019-03-10T09:35:54.066Z,22.4
2019-03-10T09:36:43.588Z,22.4
2019-03-10T09:37:33.990Z,22.4
2019-03-10T09:38:24.819Z,22.5
2019-03-10T09:39:14.048Z,22.4
2019-03-10T09:40:04.699Z,22.4
2019-03-10T09:40:54.793Z,22.5
2019-03-10T09:41:44.559Z,22.5
2019-03-10T09:42:33.896Z,22.5
2019-03-10T09:43:25.210Z,22.5
2019-03-10T09:44:14.445Z,22.5
2019-03-10T09:45:05.322Z,22.5
2019-03-10T09:45:54.560Z,22.5
2019-03-10T09:46:43.897Z,22.5
2019-03-10T09:47:34.395Z,22.5
2019-03-10T09:48:25.005Z,22.5
2019-03-10T09:49:15.030Z,22.5
2019-03-10T09:50:04.517Z,22.5
2019-03-10T09:50:54.899Z,22.5
2019-03-10T09:51:44.949Z,22.5
2019-03-10T09:52:34.733Z,22.5
2019-03-10T09:53:25.639Z,22.5
2019-03-10T09:54:15.409Z,22.5
2019-03-10T09:55:07.989Z,22.5
2019-03-10T09:55:55.811Z,22.5
2019-03-10T09:56:44.742Z,22.5
2019-03-10T09:57:35.384Z,22.4
2019-03-10T09:58:25.714Z,22.4
2019-03-10T09:59:16.039Z,22.4
2019-03-10T10:00:05.777Z,22.4
2019-03-10T10:00:55.954Z,22.4
2019-03-10T10:01:45.741Z,22.4
2019-03-10T10:02:36.024Z,22.4
2019-03-10T10:03:26.620Z,22.4
2019-03-10T10:04:16.243Z,22.4
2019-03-10T10:06:42.586Z,22.3
2019-03-10T10:07:32.126Z,22.3
2019-03-10T10:08:23.061Z,22.3
2019-03-10T10:09:13.016Z,22.3
2019-03-10T10:10:03.200Z,22.3
2019-03-10T10:10:53.653Z,22.3
2019-03-10T10:11:43.517Z,22.3
2019-03-10T10:12:33.256Z,22.3
2019-03-10T10:13:23.585Z,22.3
2019-03-10T10:14:14.211Z,22.3
2019-03-10T10:15:03.754Z,22.3
2019-03-10T10:15:54.298Z,22.3
2019-03-10T10:16:43.258Z,22.3
2019-03-10T10:17:33.311Z,22.3
2019-03-10T10:18:23.618Z,22.3
2019-03-10T10:19:14.048Z,22.3
2019-03-10T10:20:03.873Z,22.3
2019-03-10T10:20:54.653Z,22.3
2019-03-10T10:21:43.333Z,22.2
2019-03-10T10:22:33.963Z,22.2
2019-03-10T10:23:24.008Z,22.2
2019-03-10T10:24:13.860Z,22.2
2019-03-10T10:25:04.478Z,22.2
2019-03-10T10:25:53.720Z,22.2
2019-03-10T10:26:44.077Z,22.2
2019-03-10T10:27:34.417Z,22.2
2019-03-10T10:28:23.675Z,22.2
2019-03-10T10:29:14.539Z,22.2
2019-03-10T10:30:04.601Z,22.2
2019-03-10T10:30:54.087Z,22.2
2019-03-10T10:31:43.902Z,22.2
2019-03-10T10:32:34.738Z,22.2
2019-03-10T10:33:24.627Z,22.2
2019-03-10T10:34:15.360Z,22.2
2019-03-10T10:35:05.417Z,22.2
2019-03-10T10:35:54.922Z,22.1
2019-03-10T10:36:44.452Z,22.1
2019-03-10T10:37:37.842Z,22.1
2019-03-10T10:38:25.254Z,22.1
2019-03-10T10:39:15.505Z,22.1
2019-03-10T10:40:06.049Z,22.1
2019-03-10T10:40:55.577Z,22.1
2019-03-10T10:41:45.867Z,22.1
2019-03-10T10:42:35.963Z,22.1
2019-03-10T10:43:25.263Z,22.1
2019-03-10T10:44:15.804Z,22.1
2019-03-10T10:45:05.717Z,22.1
2019-03-10T10:45:58.503Z,22.1
2019-03-10T10:46:46.265Z,22.1
2019-03-10T10:47:34.954Z,22.1
2019-03-10T10:48:25.821Z,22.1
2019-03-10T10:49:15.969Z,22.1
2019-03-10T10:50:06.682Z,22.1
2019-03-10T10:50:56.203Z,22.1
2019-03-10T10:51:46.778Z,22.1
2019-03-10T10:52:36.599Z,22.1
2019-03-10T10:53:28.025Z,22.1
2019-03-10T10:54:16.676Z,22.1
2019-03-10T10:55:06.691Z,22.1
2019-03-10T10:55:56.321Z,22.1
2019-03-10T10:56:47.211Z,22.1
2019-03-10T10:57:36.459Z,22.1
2019-03-10T10:58:26.841Z,22.1
2019-03-10T10:59:17.188Z,22.1
2019-03-10T11:00:06.715Z,22.1
2019-03-10T11:00:57.573Z,22.1
2019-03-10T11:01:46.536Z,22
2019-03-10T11:02:37.133Z,22.1
2019-03-10T11:03:26.698Z,22.1
2019-03-10T11:04:17.266Z,22
2019-03-10T11:05:07.165Z,22.1
2019-03-10T11:05:57.098Z,22.1
2019-03-10T11:06:47.496Z,22
2019-03-10T11:07:37.525Z,22.1
2019-03-10T11:08:27.632Z,22.1
2019-03-10T11:09:17.387Z,22.1
2019-03-10T11:10:08.050Z,22.1
2019-03-10T11:10:57.498Z,22.1
2019-03-10T11:11:48.181Z,22.1
2019-03-10T11:12:38.142Z,22.1
2019-03-10T11:13:27.730Z,22.1
2019-03-10T11:14:17.145Z,22.1
2019-03-10T11:15:08.621Z,22.1
2019-03-10T11:15:59.292Z,22.1
2019-03-10T11:16:50.540Z,22.1
2019-03-10T11:17:37.885Z,22.1
2019-03-10T11:18:27.452Z,22.1
2019-03-10T11:19:18.369Z,22.1
2019-03-10T11:20:08.158Z,22.1
2019-03-10T11:21:01.095Z,22.1
2019-03-10T11:21:48.272Z,22.1
2019-03-10T11:22:38.522Z,22.1
2019-03-10T11:23:28.382Z,22.1
2019-03-10T11:24:19.215Z,22.1
2019-03-10T11:25:08.234Z,22.1
2019-03-10T11:25:58.059Z,22.1
2019-03-10T11:26:48.617Z,22.1
2019-03-10T11:27:38.204Z,22.1
2019-03-10T11:28:28.527Z,22.1
2019-03-10T11:29:18.884Z,22.1
2019-03-10T11:30:07.390Z,22.1
2019-03-10T11:30:57.919Z,22.1
2019-03-10T11:31:48.535Z,22.1
2019-03-10T11:32:38.900Z,22.1
2019-03-10T11:33:31.859Z,22.1
2019-03-10T11:34:18.414Z,22.1
2019-03-10T11:35:08.717Z,22.1
2019-03-10T11:35:59.531Z,22.1
2019-03-10T11:36:50.568Z,22.1
2019-03-10T11:37:39.514Z,22.1
2019-03-10T11:38:29.736Z,22.1
2019-03-10T11:39:19.634Z,22.1
2019-03-10T11:40:09.529Z,22.1
2019-03-10T11:40:59.636Z,22.1
2019-03-10T11:41:52.381Z,22.1
2019-03-10T11:42:40.617Z,22.1
2019-03-10T11:43:29.936Z,22.1
2019-03-10T11:44:19.646Z,22.1
2019-03-10T11:45:09.931Z,22.1
2019-03-10T11:45:59.288Z,22.1
2019-03-10T11:46:50.393Z,22.1
2019-03-10T11:47:40.204Z,22.1
2019-03-10T11:48:30.809Z,22.1
2019-03-10T11:49:20.305Z,22.1
2019-03-10T11:50:11.009Z,22.1
2019-03-10T11:51:01.251Z,22.1
2019-03-10T11:51:50.858Z,22.1
2019-03-10T11:52:40.295Z,22.1
2019-03-10T11:53:31.902Z,22.1
2019-03-10T11:54:20.688Z,22.1
2019-03-10T11:55:12.287Z,22.1
2019-03-10T11:56:01.345Z,22.1
2019-03-10T11:56:51.433Z,22.2
2019-03-10T11:57:40.653Z,22.2
2019-03-10T11:58:33.930Z,22.2
2019-03-10T11:59:20.275Z,22.2
2019-03-10T12:00:10.883Z,22.2
2019-03-10T12:01:01.207Z,22.2
2019-03-10T12:01:51.245Z,22.2
2019-03-10T12:02:41.859Z,22.3
2019-03-10T12:03:30.812Z,22.3
2019-03-10T12:04:21.436Z,22.2
2019-03-10T12:06:42.754Z,22.3
2019-03-10T12:07:32.535Z,22.3
2019-03-10T12:08:23.187Z,22.3
2019-03-10T12:09:13.227Z,22.3
2019-03-10T12:10:03.870Z,22.3
2019-03-10T12:10:53.339Z,22.3
2019-03-10T12:11:43.192Z,22.3
2019-03-10T12:12:33.166Z,22.3
2019-03-10T12:13:23.809Z,22.3
2019-03-10T12:14:13.563Z,22.3
2019-03-10T12:15:03.908Z,22.3
2019-03-10T12:15:53.447Z,22.4
2019-03-10T12:16:43.848Z,22.4
2019-03-10T12:17:34.086Z,22.4
2019-03-10T12:18:23.658Z,22.4
2019-03-10T12:19:13.673Z,22.4
2019-03-10T12:20:03.316Z,22.4
2019-03-10T12:20:53.516Z,22.4
2019-03-10T12:21:43.564Z,22.4
2019-03-10T12:22:34.536Z,22.4
2019-03-10T12:23:24.603Z,22.4
2019-03-10T12:24:13.608Z,22.4
2019-03-10T12:25:04.449Z,22.4
2019-03-10T12:25:54.420Z,22.4
2019-03-10T12:26:44.509Z,22.4
2019-03-10T12:27:34.333Z,22.4
2019-03-10T12:28:24.306Z,22.4
2019-03-10T12:29:14.428Z,22.4
2019-03-10T12:30:04.925Z,22.4
2019-03-10T12:30:54.195Z,22.4
2019-03-10T12:31:45.141Z,22.4
2019-03-10T12:32:34.613Z,22.4
2019-03-10T12:33:24.544Z,22.4
2019-03-10T12:34:15.056Z,22.4
2019-03-10T12:35:04.610Z,22.4
2019-03-10T12:35:54.590Z,22.4
2019-03-10T12:36:46.713Z,22.4
2019-03-10T12:37:35.820Z,22.4
2019-03-10T12:38:25.893Z,22.3
2019-03-10T12:39:17.009Z,22.3
2019-03-10T12:40:05.571Z,22.3
2019-03-10T12:40:55.200Z,22.3
2019-03-10T12:41:45.810Z,22.3
2019-03-10T12:42:35.593Z,22.3
2019-03-10T12:43:24.957Z,22.3
2019-03-10T12:44:15.232Z,22.3
2019-03-10T12:45:05.835Z,22.3
2019-03-10T12:45:55.897Z,22.3
2019-03-10T12:46:45.654Z,22.3
2019-03-10T12:47:35.287Z,22.3
2019-03-10T12:48:26.301Z,22.3
2019-03-10T12:49:16.427Z,22.3
2019-03-10T12:50:05.798Z,22.3
2019-03-10T12:50:56.005Z,22.3
2019-03-10T12:51:45.987Z,22.3
2019-03-10T12:52:36.614Z,22.3
2019-03-10T12:53:26.402Z,22.3
2019-03-10T12:54:16.179Z,22.3
2019-03-10T12:55:06.887Z,22.3
2019-03-10T12:55:56.058Z,22.3
2019-03-10T12:56:47.361Z,22.3
2019-03-10T12:57:37.034Z,22.3
2019-03-10T12:58:27.035Z,22.4
2019-03-10T12:59:15.491Z,22.4
2019-03-10T13:00:06.121Z,22.4
2019-03-10T13:01:09.604Z,22.4
2019-03-10T13:01:47.573Z,22.4
2019-03-10T13:02:37.099Z,22.4
2019-03-10T13:03:27.638Z,22.4
2019-03-10T13:04:20.234Z,22.4
2019-03-10T13:05:06.481Z,22.4
2019-03-10T13:05:57.341Z,22.5
2019-03-10T13:06:47.075Z,22.5
2019-03-10T13:07:37.447Z,22.5
2019-03-10T13:08:26.661Z,22.5
2019-03-10T13:09:17.266Z,22.5
2019-03-10T13:10:07.094Z,22.5
2019-03-10T13:10:58.019Z,22.6
2019-03-10T13:11:47.802Z,22.6
2019-03-10T13:12:37.850Z,22.6
2019-03-10T13:13:27.072Z,22.6
2019-03-10T13:14:17.937Z,22.6
2019-03-10T13:15:07.131Z,22.6
2019-03-10T13:15:57.541Z,22.6
2019-03-10T13:16:47.043Z,22.6
2019-03-10T13:17:37.626Z,22.6
2019-03-10T13:18:27.760Z,22.6
2019-03-10T13:19:18.437Z,22.6
2019-03-10T13:20:08.405Z,22.6
2019-03-10T13:20:58.488Z,22.6
2019-03-10T13:21:49.603Z,22.6
2019-03-10T13:22:38.645Z,22.7
2019-03-10T13:23:28.557Z,22.7
2019-03-10T13:24:18.100Z,22.7
2019-03-10T13:25:07.717Z,22.7
2019-03-10T13:25:57.817Z,22.7
2019-03-10T13:26:48.654Z,22.7
2019-03-10T13:27:37.658Z,22.7
2019-03-10T13:28:28.272Z,22.8
2019-03-10T13:29:18.562Z,22.8
2019-03-10T13:30:08.898Z,22.8
2019-03-10T13:30:58.485Z,22.8
2019-03-10T13:31:49.267Z,22.8
2019-03-10T13:32:38.230Z,22.8
2019-03-10T13:33:28.890Z,22.8
2019-03-10T13:34:19.248Z,22.8
2019-03-10T13:35:08.724Z,22.8
2019-03-10T13:36:02.170Z,22.8
2019-03-10T13:36:48.767Z,22.8
2019-03-10T13:37:39.080Z,22.8
2019-03-10T13:38:29.687Z,22.8
2019-03-10T13:39:19.505Z,22.9
2019-03-10T13:40:09.596Z,22.9
2019-03-10T13:41:02.909Z,22.9
2019-03-10T13:41:50.204Z,22.9
2019-03-10T13:42:38.867Z,22.9
2019-03-10T13:43:29.786Z,22.9
2019-03-10T13:44:20.124Z,22.9
2019-03-10T13:45:10.548Z,22.9
2019-03-10T13:45:59.945Z,22.9
2019-03-10T13:46:50.350Z,22.9
2019-03-10T13:47:40.374Z,22.9
2019-03-10T13:48:30.430Z,22.9
2019-03-10T13:49:19.986Z,22.9
2019-03-10T13:50:10.579Z,22.9
2019-03-10T13:51:01.179Z,22.9
2019-03-10T13:51:49.849Z,22.9
2019-03-10T13:52:40.201Z,22.9
2019-03-10T13:53:30.474Z,22.9
2019-03-10T13:54:21.124Z,22.9
2019-03-10T13:55:10.607Z,22.9
2019-03-10T13:56:00.712Z,22.9
2019-03-10T13:56:51.025Z,22.9
2019-03-10T13:57:41.658Z,22.9
2019-03-10T13:58:31.139Z,22.9
2019-03-10T13:59:20.941Z,22.9
2019-03-10T14:00:10.997Z,22.9
2019-03-10T14:01:00.493Z,22.9
2019-03-10T14:01:50.038Z,22.9
2019-03-10T14:02:41.138Z,22.9
2019-03-10T14:03:30.650Z,22.9
2019-03-10T14:04:21.574Z,22.9
2019-03-10T14:05:11.373Z,22.9
2019-03-10T14:07:43.505Z,22.9
2019-03-10T14:08:33.243Z,22.9
2019-03-10T14:09:22.157Z,22.9
2019-03-10T14:10:15.893Z,22.9
2019-03-10T14:11:03.278Z,22.9
2019-03-10T14:11:52.903Z,22.9
2019-03-10T14:12:42.855Z,22.9
2019-03-10T14:13:33.358Z,22.9
2019-03-10T14:14:23.395Z,22.9
2019-03-10T14:15:12.142Z,22.9
2019-03-10T14:16:03.046Z,22.9
2019-03-10T14:16:53.047Z,22.9
2019-03-10T14:17:42.858Z,23
2019-03-10T14:18:33.977Z,23
2019-03-10T14:19:23.747Z,23
2019-03-10T14:20:14.377Z,23
2019-03-10T14:21:03.457Z,23
2019-03-10T14:21:53.680Z,23
2019-03-10T14:22:43.420Z,23
2019-03-10T14:23:33.780Z,23